Brookley Field, Alabama
Current Conditions -  °F | °C
As of 2:53 PM on Thursday 18 Dec 2014 (Local Time) from KBFM Reporting Station
Scattered Clouds Scattered Clouds  
Wind Chill: 61°   Ceiling: Unl
Heat Index: 61°   Visibility: 10mi
Dew Point: 46°   Wind: 5mph
Humidity: 58%   Direction: 160°SSE
Pressure: 30.13"   Gusts: NA
Location:  30.641°N, 88.065°W
Report Text: KBFM 182053Z 16004KT 10SM SCT110 16/08 A3013 RMK AO2 SLP203 T01610078 55020
Loading
Personal Weather Stations






























Interactive Weather Map New forecast layout! Learn more

10-Day Weather Forecast

Advertisements
Track Severe Weather on mobile